Fort Story, Virginia
Current Conditions -  °F | °C
As of 4:56 AM on Saturday 22 Nov 2014 (Local Time) from KNTU Reporting Station
Clear Clear  
Wind Chill: 24°   Ceiling: Unl
Heat Index: 24°   Visibility: 10mi
Dew Point: 19°   Wind: 3mph
Humidity: 81%   Direction: 230°SW
Pressure: 30.55"   Gusts: NA
Location:  36.922°N, 76.0108°W
Report Text: KNTU 220956Z 23003KT 10SM CLR M04/M07 A3055 RMK AO2 SLP346 T10441072
Loading
Personal Weather Stations






























Interactive Weather Map New forecast layout! Learn more

10-Day Weather Forecast

Advertisements
Track Severe Weather on mobile